Time;durP1;ratioP1;P1;durP2;ratioP2;P2;SDS_P1;SDS_P2;PMS_P1;PMS_P2;Temp;Humidity;BMP_temperature;BMP_pressure;BME280_temperature;BME280_humidity;BME280_pressure;Samples;Min_cycle;Max_cycle;Signal;HPM_P1;HPM_P2
2023/12/25 00:00:41;;;;;;;1.98;1.80;;;;;;;9.85;100.00;100385.53;5030241;28;20476;-85
2023/12/25 00:03:07;;;;;;;3.15;2.03;;;;;;;9.64;100.00;100366.28;5025633;28;20064;-85
2023/12/25 00:05:32;;;;;;;3.05;1.90;;;;;;;9.55;100.00;100346.41;5019014;28;20071;-85
2023/12/25 00:07:57;;;;;;;2.30;2.10;;;;;;;9.58;100.00;100345.38;5025556;28;20094;-84
2023/12/25 00:10:23;;;;;;;2.35;2.15;;;;;;;9.86;100.00;100384.56;5020233;28;20566;-85
2023/12/25 00:12:48;;;;;;;2.17;2.00;;;;;;;9.85;100.00;100383.72;5020639;28;20082;-84
2023/12/25 00:15:13;;;;;;;2.55;1.90;;;;;;;9.86;100.00;100381.91;5022506;28;20360;-84
2023/12/25 00:17:39;;;;;;;3.30;2.25;;;;;;;9.67;100.00;100385.59;5020457;28;20445;-83
2023/12/25 00:20:05;;;;;;;2.65;2.00;;;;;;;9.85;100.00;100391.69;5032078;28;20053;-84
2023/12/25 00:22:31;;;;;;;3.63;2.25;;;;;;;9.86;100.00;100384.56;5018542;28;20517;-84
2023/12/25 00:24:56;;;;;;;2.90;1.90;;;;;;;9.80;100.00;100377.81;5022665;28;20469;-84
2023/12/25 00:27:22;;;;;;;3.65;2.33;;;;;;;9.80;100.00;100375.16;5010289;28;20052;-84
2023/12/25 00:29:47;;;;;;;3.05;1.75;;;;;;;9.73;100.00;100349.84;5014561;28;20209;-84
2023/12/25 00:32:12;;;;;;;3.20;1.92;;;;;;;9.79;100.00;100372.59;5010716;28;20421;-84
2023/12/25 00:34:38;;;;;;;2.47;2.20;;;;;;;9.88;100.00;100370.25;5023871;28;20045;-84
2023/12/25 00:37:03;;;;;;;3.33;2.15;;;;;;;9.84;100.00;100379.34;5026417;28;20040;-83
2023/12/25 00:39:28;;;;;;;3.20;2.40;;;;;;;9.36;100.00;100284.56;5015098;28;20057;-84
2023/12/25 00:41:54;;;;;;;2.30;2.10;;;;;;;9.85;100.00;100358.94;5026992;28;20041;-84
2023/12/25 00:44:19;;;;;;;5.18;2.30;;;;;;;9.84;100.00;100374.03;5025926;28;20068;-85
2023/12/25 00:46:44;;;;;;;4.35;2.30;;;;;;;9.88;100.00;100385.34;5018892;28;20040;-85
2023/12/25 00:49:11;;;;;;;2.55;2.10;;;;;;;9.81;100.00;100362.72;5027050;28;20042;-85
2023/12/25 00:51:36;;;;;;;3.15;2.50;;;;;;;9.79;100.00;100364.59;5019621;28;20025;-86
2023/12/25 00:54:02;;;;;;;4.95;2.42;;;;;;;9.89;100.00;100393.25;5026833;28;20041;-86
2023/12/25 00:56:27;;;;;;;4.15;2.38;;;;;;;9.77;100.00;100380.63;5028287;28;20034;-84
2023/12/25 00:58:52;;;;;;;4.18;2.60;;;;;;;9.91;100.00;100402.00;5038729;28;20093;-85
2023/12/25 01:01:18;;;;;;;3.70;2.42;;;;;;;9.90;100.00;100392.28;5034963;28;20039;-85
2023/12/25 01:03:43;;;;;;;3.42;2.40;;;;;;;9.91;100.00;100411.78;5027336;28;20071;-85
2023/12/25 01:06:08;;;;;;;3.22;2.58;;;;;;;9.91;100.00;100399.34;5026449;28;20087;-85
2023/12/25 01:08:34;;;;;;;3.05;2.42;;;;;;;9.89;100.00;100403.00;5025690;28;20037;-86
2023/12/25 01:11:03;;;;;;;5.20;2.65;;;;;;;9.94;100.00;100406.28;5027934;28;20030;-85
2023/12/25 01:13:28;;;;;;;5.05;2.30;;;;;;;9.94;100.00;100408.94;5022501;28;20492;-85
2023/12/25 01:15:53;;;;;;;2.83;2.60;;;;;;;9.90;100.00;100405.59;5017074;28;20037;-86
2023/12/25 01:18:19;;;;;;;4.53;2.33;;;;;;;9.93;100.00;100407.22;5024576;28;20037;-86
2023/12/25 01:20:46;;;;;;;4.53;2.53;;;;;;;9.92;100.00;100410.84;5022458;28;20512;-86
2023/12/25 01:23:12;;;;;;;3.88;2.60;;;;;;;9.67;100.00;100358.16;5030825;28;20068;-86
2023/12/25 01:25:37;;;;;;;3.70;2.65;;;;;;;9.94;100.00;100407.13;5023137;28;20425;-85
2023/12/25 01:28:02;;;;;;;3.83;2.40;;;;;;;9.97;100.00;100404.31;5025857;28;20059;-85
2023/12/25 01:30:28;;;;;;;4.43;2.50;;;;;;;9.92;100.00;100397.53;5027320;28;20035;-86
2023/12/25 01:32:53;;;;;;;2.60;2.40;;;;;;;9.94;100.00;100401.81;5015734;28;20036;-86
2023/12/25 01:35:18;;;;;;;3.60;2.33;;;;;;;9.98;100.00;100421.97;5025180;28;20037;-85
2023/12/25 01:37:45;;;;;;;3.55;2.60;;;;;;;9.95;100.00;100419.50;5037716;28;20053;-86
2023/12/25 01:40:10;;;;;;;3.20;2.60;;;;;;;9.95;100.00;100424.81;5039106;28;20044;-87
2023/12/25 01:42:36;;;;;;;3.90;2.70;;;;;;;9.97;100.00;100422.91;5038464;28;20057;-85
2023/12/25 01:45:01;;;;;;;3.25;2.60;;;;;;;9.95;100.00;100408.00;5035482;28;20129;-84
2023/12/25 01:47:27;;;;;;;4.93;3.28;;;;;;;9.82;100.00;100385.69;5040177;28;20126;-84
2023/12/25 01:49:52;;;;;;;4.90;2.83;;;;;;;9.68;100.00;100378.47;5043553;28;20024;-84
2023/12/25 01:52:18;;;;;;;4.03;2.42;;;;;;;9.92;100.00;100419.66;5027126;28;20539;-84
2023/12/25 01:54:44;;;;;;;3.97;2.58;;;;;;;9.88;100.00;100427.88;5024938;28;20132;-83
2023/12/25 01:57:10;;;;;;;3.15;2.50;;;;;;;9.68;100.00;100381.97;5021732;28;20073;-85
2023/12/25 01:59:35;;;;;;;2.70;2.30;;;;;;;9.84;100.00;100413.91;5027695;28;20059;-84
2023/12/25 02:02:01;;;;;;;3.15;2.70;;;;;;;9.93;100.00;100436.47;5027207;28;20064;-85
2023/12/25 02:04:27;;;;;;;4.10;3.10;;;;;;;9.91;100.00;100444.53;5021418;28;20029;-85
2023/12/25 02:06:54;;;;;;;2.65;2.45;;;;;;;9.84;100.00;100421.88;5020807;28;20038;-85
2023/12/25 02:09:19;;;;;;;3.05;2.70;;;;;;;9.81;100.00;100394.59;5016389;28;20040;-85
2023/12/25 02:11:45;;;;;;;3.00;2.80;;;;;;;9.91;100.00;100412.63;5020194;28;20045;-85
2023/12/25 02:14:12;;;;;;;3.08;2.78;;;;;;;9.93;100.00;100401.91;5028156;28;20056;-85
2023/12/25 02:16:39;;;;;;;3.28;2.80;;;;;;;10.01;100.00;100420.09;5020220;28;20120;-85
2023/12/25 02:19:19;;;;;;;2.53;2.33;;;;;;;10.13;100.00;100433.56;5026440;28;20026;-85
2023/12/25 02:21:45;;;;;;;3.58;3.03;;;;;;;10.10;100.00;100441.72;5022083;28;20112;-85
2023/12/25 02:24:12;;;;;;;2.70;2.47;;;;;;;10.10;100.00;100447.03;5014186;28;20121;-85
2023/12/25 02:26:38;;;;;;;3.50;2.67;;;;;;;9.90;100.00;100416.22;5022486;28;20306;-86
2023/12/25 02:29:03;;;;;;;2.83;2.63;;;;;;;10.10;100.00;100440.84;5022685;28;20563;-85
2023/12/25 02:31:29;;;;;;;3.10;2.80;;;;;;;10.10;100.00;100440.84;5016376;28;20040;-85
2023/12/25 02:33:54;;;;;;;3.97;3.00;;;;;;;10.11;100.00;100448.75;5028468;28;20754;-86
2023/12/25 02:36:20;;;;;;;3.65;3.03;;;;;;;10.11;100.00;100438.09;5028997;28;20048;-86
2023/12/25 02:38:45;;;;;;;3.58;3.10;;;;;;;10.15;100.00;100447.63;5026126;28;20033;-85
2023/12/25 02:41:10;;;;;;;3.65;2.92;;;;;;;10.05;100.00;100442.91;5018886;28;20432;-84
2023/12/25 02:43:35;;;;;;;2.92;2.63;;;;;;;9.99;100.00;100417.53;5025841;28;20045;-85
2023/12/25 02:46:01;;;;;;;3.30;3.00;;;;;;;9.83;100.00;100398.91;5029806;28;20025;-85
2023/12/25 02:48:26;;;;;;;3.50;3.00;;;;;;;10.20;100.00;100474.84;5026378;28;20043;-85
2023/12/25 02:50:52;;;;;;;3.35;3.05;;;;;;;10.20;100.00;100466.03;5024290;28;20353;-84
2023/12/25 02:53:17;;;;;;;4.53;2.80;;;;;;;10.15;100.00;100470.72;5032232;28;20040;-84
2023/12/25 02:55:42;;;;;;;4.97;3.05;;;;;;;10.19;100.00;100477.56;5019807;28;20037;-84
2023/12/25 02:58:07;;;;;;;2.60;2.40;;;;;;;10.11;100.00;100453.19;5025072;28;20026;-84
2023/12/25 03:00:33;;;;;;;3.05;2.30;;;;;;;10.09;100.00;100468.41;5025691;28;20103;-85
2023/12/25 03:02:58;;;;;;;3.50;2.67;;;;;;;10.20;100.00;100495.28;5024451;28;20028;-84
2023/12/25 03:05:24;;;;;;;2.78;2.58;;;;;;;10.13;100.00;100473.47;5045585;28;20551;-84
2023/12/25 03:07:49;;;;;;;2.47;2.28;;;;;;;10.17;100.00;100490.97;5020673;28;20476;-84
2023/12/25 03:10:14;;;;;;;2.80;2.22;;;;;;;10.18;100.00;100494.47;5026989;28;20447;-85
2023/12/25 03:12:40;;;;;;;2.47;2.28;;;;;;;10.03;100.00;100450.09;5018997;28;20099;-85
2023/12/25 03:15:05;;;;;;;3.03;1.98;;;;;;;10.15;100.00;100476.03;5019409;28;20034;-85
2023/12/25 03:17:31;;;;;;;2.15;1.98;;;;;;;10.07;100.00;100454.31;5018542;28;20112;-85
2023/12/25 03:19:56;;;;;;;2.95;2.50;;;;;;;10.10;100.00;100456.81;5027708;28;21305;-85
2023/12/25 03:22:21;;;;;;;3.25;2.05;;;;;;;10.13;100.00;100454.84;5020663;28;20033;-84
2023/12/25 03:24:47;;;;;;;2.45;2.00;;;;;;;10.16;100.00;100469.78;5018340;28;20154;-85
2023/12/25 03:27:12;;;;;;;2.15;1.95;;;;;;;10.09;100.00;100461.28;5026183;28;20030;-84
2023/12/25 03:29:37;;;;;;;2.50;1.80;;;;;;;10.18;100.00;100481.19;5020504;28;20037;-84
2023/12/25 03:32:03;;;;;;;2.17;1.98;;;;;;;10.16;100.00;100469.78;5021439;28;20032;-84
2023/12/25 03:34:28;;;;;;;2.20;1.90;;;;;;;10.19;100.00;100486.41;5025798;28;20068;-84
2023/12/25 03:36:54;;;;;;;2.03;1.88;;;;;;;10.10;100.00;100456.81;5026280;28;20029;-84
2023/12/25 03:39:19;;;;;;;3.88;2.20;;;;;;;10.18;100.00;100487.34;5026004;28;20346;-84
2023/12/25 03:41:44;;;;;;;1.98;1.80;;;;;;;10.19;100.00;100489.06;5027051;28;20041;-84
2023/12/25 03:44:10;;;;;;;2.15;1.95;;;;;;;10.23;100.00;100487.97;5031900;28;20038;-84
2023/12/25 03:46:35;;;;;;;2.92;2.30;;;;;;;10.04;100.00;100460.69;5025281;28;20036;-84
2023/12/25 03:49:00;;;;;;;1.70;1.60;;;;;;;10.07;100.00;100472.94;5034410;28;20034;-85
2023/12/25 03:51:26;;;;;;;2.90;2.00;;;;;;;10.01;100.00;100478.59;5031329;28;20044;-85
2023/12/25 03:53:51;;;;;;;3.17;2.33;;;;;;;9.95;100.00;100474.47;5045011;28;20045;-85
2023/12/25 03:56:17;;;;;;;3.85;2.30;;;;;;;9.98;100.00;100483.13;5028856;28;20052;-84
2023/12/25 03:58:43;;;;;;;2.05;1.90;;;;;;;9.94;100.00;100484.22;5019965;28;20037;-84
2023/12/25 04:01:09;;;;;;;3.55;2.50;;;;;;;9.90;100.00;100481.81;5014395;28;20090;-84
2023/12/25 04:03:34;;;;;;;3.45;2.20;;;;;;;10.04;100.00;100518.31;5016841;28;20441;-84
2023/12/25 04:06:00;;;;;;;4.57;2.63;;;;;;;10.06;100.00;100508.44;5024926;28;20032;-85
2023/12/25 04:08:25;;;;;;;2.78;2.10;;;;;;;10.03;100.00;100516.56;5018838;28;20030;-84
2023/12/25 04:10:51;;;;;;;3.05;2.30;;;;;;;10.03;100.00;100512.13;5023918;28;20531;-84
2023/12/25 04:13:16;;;;;;;3.58;2.42;;;;;;;9.98;100.00;100514.16;5024614;28;20508;-84
2023/12/25 04:15:41;;;;;;;3.83;2.60;;;;;;;9.95;100.00;100507.25;5022963;28;20049;-84
2023/12/25 04:18:07;;;;;;;3.33;2.40;;;;;;;9.82;100.00;100479.56;5019857;28;20112;-84
2023/12/25 04:20:33;;;;;;;3.63;2.20;;;;;;;9.71;100.00;100458.91;5029559;28;20503;-84
2023/12/25 04:22:59;;;;;;;2.70;2.20;;;;;;;9.92;100.00;100493.25;5015212;28;20102;-84
2023/12/25 04:25:24;;;;;;;2.30;2.10;;;;;;;9.87;100.00;100468.72;5016356;28;20062;-84
2023/12/25 04:27:51;;;;;;;3.60;2.50;;;;;;;9.84;100.00;100469.72;5014996;28;20524;-84
2023/12/25 04:30:17;;;;;;;4.97;2.42;;;;;;;9.84;100.00;100469.72;5017282;28;20036;-83
2023/12/25 04:32:42;;;;;;;2.13;2.03;;;;;;;9.87;100.00;100469.56;5025274;28;20041;-85
2023/12/25 04:35:08;;;;;;;2.63;2.30;;;;;;;9.86;100.00;100467.81;5022287;28;20065;-84
2023/12/25 04:37:33;;;;;;;2.28;2.08;;;;;;;9.86;100.00;100483.78;5028612;28;20037;-84
2023/12/25 04:40:00;;;;;;;4.90;3.20;;;;;;;9.87;100.00;100476.69;5018872;28;20681;-86
2023/12/25 04:42:25;;;;;;;3.28;2.22;;;;;;;9.83;100.00;100467.16;5012682;28;20030;-86
2023/12/25 04:44:50;;;;;;;3.20;1.95;;;;;;;9.85;100.00;100462.59;5017336;28;20026;-86
2023/12/25 04:47:16;;;;;;;1.95;1.60;;;;;;;9.86;100.00;100481.13;5019999;28;20029;-85
2023/12/25 04:49:41;;;;;;;2.63;1.95;;;;;;;9.89;100.00;100470.31;5028739;28;20642;-86
2023/12/25 04:52:07;;;;;;;2.17;1.75;;;;;;;9.88;100.00;100470.44;5023972;28;20030;-86
2023/12/25 04:54:32;;;;;;;1.92;1.50;;;;;;;9.75;100.00;100443.66;5009460;28;20045;-86
2023/12/25 04:56:57;;;;;;;1.67;1.50;;;;;;;9.90;100.00;100465.88;5014489;28;20037;-84
2023/12/25 04:59:23;;;;;;;2.08;1.50;;;;;;;9.86;100.00;100461.66;5023671;28;20049;-85
2023/12/25 05:01:49;;;;;;;1.60;1.50;;;;;;;9.84;100.00;100448.47;5021416;28;20215;-84
2023/12/25 05:04:15;;;;;;;2.20;1.50;;;;;;;9.87;100.00;100445.66;5022234;28;20133;-83
2023/12/25 05:06:40;;;;;;;1.88;1.42;;;;;;;9.75;100.00;100435.66;5015206;28;20034;-84
2023/12/25 05:09:06;;;;;;;1.52;1.42;;;;;;;9.78;100.00;100430.19;5020449;28;20041;-83
2023/12/25 05:11:31;;;;;;;1.65;1.40;;;;;;;9.77;100.00;100424.94;5025799;28;20099;-85
2023/12/25 05:13:57;;;;;;;1.50;1.40;;;;;;;9.78;100.00;100430.19;5014411;28;20042;-84
2023/12/25 05:16:22;;;;;;;1.60;1.50;;;;;;;9.58;100.00;100409.16;5018060;28;20041;-84
2023/12/25 05:18:47;;;;;;;1.90;1.80;;;;;;;9.68;100.00;100431.63;5010455;28;20044;-83
2023/12/25 05:21:13;;;;;;;2.10;1.80;;;;;;;9.81;100.00;100458.41;5027090;28;20036;-84
2023/12/25 05:23:38;;;;;;;1.80;1.70;;;;;;;9.53;100.00;100403.19;5016535;28;20196;-84
2023/12/25 05:26:03;;;;;;;1.92;1.60;;;;;;;9.65;100.00;100437.09;5013101;28;20044;-83
2023/12/25 05:28:29;;;;;;;1.85;1.75;;;;;;;9.66;100.00;100434.38;5011714;28;20044;-84
2023/12/25 05:30:54;;;;;;;2.17;1.77;;;;;;;9.78;100.00;100464.75;5020170;28;20649;-84
2023/12/25 05:33:20;;;;;;;1.75;1.65;;;;;;;9.73;100.00;100450.81;5023339;28;20136;-84
2023/12/25 05:35:46;;;;;;;1.73;1.63;;;;;;;9.66;100.00;100430.84;5025396;28;20133;-84
2023/12/25 05:38:11;;;;;;;1.90;1.75;;;;;;;9.68;100.00;100421.00;5018392;28;20461;-85
2023/12/25 05:40:37;;;;;;;2.83;1.88;;;;;;;9.70;100.00;100427.94;5025010;28;20025;-84
2023/12/25 05:43:03;;;;;;;1.88;1.75;;;;;;;9.70;100.00;100427.94;5025081;28;20095;-84
2023/12/25 05:45:28;;;;;;;2.28;2.08;;;;;;;9.76;100.00;100433.88;5023420;28;20029;-85
2023/12/25 05:47:53;;;;;;;2.00;1.90;;;;;;;9.78;100.00;100448.81;5016875;28;20056;-84
2023/12/25 05:50:19;;;;;;;1.80;1.70;;;;;;;9.81;100.00;100456.59;5025877;28;20144;-84
2023/12/25 05:52:45;;;;;;;1.83;1.73;;;;;;;9.64;100.00;100428.25;5021799;28;20449;-85
2023/12/25 05:55:11;;;;;;;1.77;1.67;;;;;;;9.79;100.00;100455.84;5022344;28;20095;-85
2023/12/25 05:57:36;;;;;;;1.60;1.50;;;;;;;9.77;100.00;100443.56;5020623;28;20101;-85
2023/12/25 06:00:02;;;;;;;2.30;2.00;;;;;;;9.76;100.00;100434.72;5041138;28;20037;-85
2023/12/25 06:02:28;;;;;;;1.50;1.40;;;;;;;9.84;100.00;100452.91;5024443;28;20487;-84
2023/12/25 06:04:53;;;;;;;1.60;1.45;;;;;;;9.82;100.00;100450.31;5025859;28;20041;-84
2023/12/25 06:07:18;;;;;;;1.98;1.60;;;;;;;9.83;100.00;100456.53;5014307;28;20041;-84
2023/12/25 06:09:44;;;;;;;1.98;1.77;;;;;;;9.57;100.00;100404.75;5025315;28;20029;-84
2023/12/25 06:12:10;;;;;;;2.65;1.60;;;;;;;9.81;100.00;100453.94;5019300;28;20040;-83
2023/12/25 06:14:36;;;;;;;1.77;1.67;;;;;;;9.83;100.00;100459.19;5029698;28;20402;-83
2023/12/25 06:17:02;;;;;;;1.92;1.83;;;;;;;9.76;100.00;100425.91;5031957;28;20045;-83
2023/12/25 06:19:27;;;;;;;2.28;1.60;;;;;;;9.87;100.00;100448.31;5014438;28;20061;-84
2023/12/25 06:21:53;;;;;;;1.92;1.50;;;;;;;9.86;100.00;100446.56;5033991;28;20037;-84
2023/12/25 06:24:18;;;;;;;1.90;1.80;;;;;;;9.78;100.00;100446.16;5034053;28;20022;-84
2023/12/25 06:26:44;;;;;;;2.00;1.88;;;;;;;9.85;100.00;100439.53;5030506;28;20047;-85
2023/12/25 06:29:09;;;;;;;1.67;1.58;;;;;;;9.87;100.00;100453.63;5023276;28;20069;-84
2023/12/25 06:31:35;;;;;;;1.70;1.60;;;;;;;9.57;100.00;100408.28;5035521;28;20554;-86
2023/12/25 06:34:00;;;;;;;1.80;1.70;;;;;;;9.83;100.00;100445.91;5030069;28;20049;-84
2023/12/25 06:36:26;;;;;;;1.45;1.35;;;;;;;9.72;100.00;100435.81;5027283;28;20026;-84
2023/12/25 06:38:51;;;;;;;2.00;1.90;;;;;;;9.79;100.00;100439.03;5022458;28;20029;-85
2023/12/25 06:41:16;;;;;;;1.60;1.50;;;;;;;9.71;100.00;100429.66;5028719;28;20030;-84
2023/12/25 06:43:42;;;;;;;2.70;1.60;;;;;;;9.79;100.00;100445.19;5020124;28;20769;-84
2023/12/25 06:46:07;;;;;;;1.55;1.38;;;;;;;9.81;100.00;100453.94;5019616;28;20029;-84
2023/12/25 06:48:32;;;;;;;1.77;1.67;;;;;;;9.62;100.00;100418.69;5026577;28;20029;-85
2023/12/25 06:50:58;;;;;;;2.00;1.80;;;;;;;9.81;100.00;100453.94;5020425;28;20063;-83
2023/12/25 06:53:23;;;;;;;1.83;1.70;;;;;;;9.81;100.00;100450.41;5016769;28;20038;-84
2023/12/25 06:55:48;;;;;;;1.75;1.65;;;;;;;9.81;100.00;100451.28;5021368;28;20065;-83
2023/12/25 06:58:14;;;;;;;1.85;1.58;;;;;;;9.82;100.00;100460.97;5024890;28;20033;-84
2023/12/25 07:00:39;;;;;;;1.75;1.65;;;;;;;9.80;100.00;100452.22;5016050;28;20045;-84
2023/12/25 07:03:04;;;;;;;2.00;1.80;;;;;;;9.72;100.00;100438.50;5012695;28;20038;-85
2023/12/25 07:05:33;;;;;;;2.28;2.00;;;;;;;9.63;100.00;100421.25;5020385;28;20029;-84
2023/12/25 07:07:58;;;;;;;2.63;2.42;;;;;;;9.83;100.00;100457.38;5020394;28;20712;-83
2023/12/25 07:10:24;;;;;;;2.60;2.40;;;;;;;9.82;100.00;100455.63;5020807;28;20143;-82
2023/12/25 07:12:50;;;;;;;2.80;2.60;;;;;;;9.82;100.00;100452.97;5022688;28;20256;-83
2023/12/25 07:15:15;;;;;;;2.75;2.55;;;;;;;9.61;100.00;100417.78;5015243;28;20525;-80
2023/12/25 07:17:41;;;;;;;2.88;2.67;;;;;;;9.82;100.00;100468.94;5014138;28;20558;-83
2023/12/25 07:20:07;;;;;;;2.70;2.50;;;;;;;9.79;100.00;100457.63;5023048;28;20029;-83
2023/12/25 07:22:32;;;;;;;3.03;2.83;;;;;;;9.84;100.00;100475.03;5017860;28;20034;-83
2023/12/25 07:25:04;;;;;;;3.08;2.88;;;;;;;9.79;100.00;100470.94;5024195;28;20029;-83
2023/12/25 07:27:31;;;;;;;5.20;2.83;;;;;;;9.81;100.00;100479.66;5032240;28;20280;-84
2023/12/25 07:29:56;;;;;;;3.25;2.95;;;;;;;9.82;100.00;100482.22;5019819;28;20109;-83
2023/12/25 07:32:21;;;;;;;3.10;2.80;;;;;;;9.83;100.00;100483.13;5023435;28;20121;-84
2023/12/25 07:34:47;;;;;;;3.10;2.90;;;;;;;9.75;100.00;100483.50;5024831;28;20072;-84
2023/12/25 07:37:12;;;;;;;3.00;2.80;;;;;;;9.63;100.00;100462.91;5035198;28;20499;-84
2023/12/25 07:39:40;;;;;;;3.45;3.15;;;;;;;9.85;100.00;100511.31;5036974;28;20036;-84
2023/12/25 07:42:05;;;;;;;3.15;2.95;;;;;;;9.69;100.00;100487.34;5041546;28;20037;-85
2023/12/25 07:44:31;;;;;;;3.72;3.17;;;;;;;9.87;100.00;100509.44;5038511;28;20587;-83
2023/12/25 07:46:56;;;;;;;3.70;3.40;;;;;;;9.74;100.00;100492.44;5034354;28;20030;-84
2023/12/25 07:49:21;;;;;;;3.58;3.38;;;;;;;9.84;100.00;100504.28;5039241;28;20029;-85
2023/12/25 07:51:47;;;;;;;3.20;3.00;;;;;;;9.72;100.00;100496.97;5026433;28;20029;-84
2023/12/25 07:54:12;;;;;;;3.60;3.30;;;;;;;9.81;100.00;100507.09;5041141;28;20033;-81
2023/12/25 07:56:37;;;;;;;3.75;3.45;;;;;;;9.85;100.00;100513.97;5027407;28;20033;-83
2023/12/25 07:59:03;;;;;;;3.63;3.40;;;;;;;9.59;100.00;100470.16;5019281;28;20117;-84
2023/12/25 08:01:28;;;;;;;3.60;3.30;;;;;;;9.72;100.00;100497.81;5017257;28;20033;-84
2023/12/25 08:03:53;;;;;;;3.75;3.45;;;;;;;9.66;100.00;100484.00;5017891;28;20045;-83
2023/12/25 08:06:19;;;;;;;3.63;3.33;;;;;;;9.84;100.00;100528.19;5020052;28;20032;-84
2023/12/25 08:08:47;;;;;;;3.95;3.55;;;;;;;9.84;100.00;100522.88;5025617;28;20029;-84
2023/12/25 08:11:14;;;;;;;4.18;3.88;;;;;;;9.85;100.00;100531.72;5021564;28;20073;-83
2023/12/25 08:13:39;;;;;;;3.50;3.28;;;;;;;9.85;100.00;100539.69;5013251;28;20499;-84
2023/12/25 08:16:04;;;;;;;3.80;3.50;;;;;;;9.73;100.00;100517.28;5018116;28;20116;-84
2023/12/25 08:18:31;;;;;;;3.97;3.67;;;;;;;9.84;100.00;100538.84;5018764;28;20045;-84
2023/12/25 08:20:56;;;;;;;3.85;3.55;;;;;;;9.84;100.00;100544.16;5023302;28;20029;-83
2023/12/25 08:23:22;;;;;;;3.95;3.65;;;;;;;9.86;100.00;100539.59;5023118;28;20104;-84
2023/12/25 08:25:47;;;;;;;3.47;3.28;;;;;;;9.86;100.00;100552.03;5027831;28;20103;-85
2023/12/25 08:28:13;;;;;;;3.70;3.40;;;;;;;9.67;100.00;100526.44;5030094;28;20028;-84
2023/12/25 08:30:38;;;;;;;3.88;3.58;;;;;;;9.70;100.00;100536.06;5021461;28;20117;-84
2023/12/25 08:33:03;;;;;;;3.78;3.47;;;;;;;9.86;100.00;100552.88;5026457;28;20592;-85
2023/12/25 08:35:29;;;;;;;4.32;3.92;;;;;;;9.87;100.00;100567.06;5028211;28;20033;-84
2023/12/25 08:37:54;;;;;;;3.95;3.55;;;;;;;9.86;100.00;100562.66;5028442;28;20515;-85
2023/12/25 08:40:19;;;;;;;3.90;3.60;;;;;;;9.82;100.00;100556.66;5013665;28;20072;-84
2023/12/25 08:42:45;;;;;;;4.68;4.28;;;;;;;9.88;100.00;100571.44;5014863;28;20033;-85
2023/12/25 08:45:11;;;;;;;4.70;4.30;;;;;;;9.79;100.00;100550.66;5018256;28;20041;-84
2023/12/25 08:47:36;;;;;;;4.97;4.57;;;;;;;9.88;100.00;100568.78;5033680;28;20037;-83
2023/12/25 08:50:02;;;;;;;5.03;4.57;;;;;;;9.72;100.00;100542.13;5025415;28;20037;-85
2023/12/25 08:52:27;;;;;;;4.88;4.38;;;;;;;9.86;100.00;100560.00;5020718;28;20327;-84
2023/12/25 08:54:52;;;;;;;5.45;4.95;;;;;;;9.75;100.00;100535.81;5015332;28;20530;-85
2023/12/25 08:57:18;;;;;;;5.47;5.03;;;;;;;9.85;100.00;100563.63;5018670;28;20495;-84
2023/12/25 08:59:45;;;;;;;5.50;5.00;;;;;;;9.76;100.00;100548.16;5023732;28;20527;-85
2023/12/25 09:02:11;;;;;;;5.25;4.35;;;;;;;9.90;100.00;100585.50;5020219;28;20547;-85
2023/12/25 09:04:36;;;;;;;4.65;4.22;;;;;;;9.88;100.00;100582.06;5024425;28;20029;-84
2023/12/25 09:07:01;;;;;;;4.88;4.47;;;;;;;9.90;100.00;100578.38;5024276;28;20132;-85
2023/12/25 09:09:26;;;;;;;5.05;4.63;;;;;;;9.78;100.00;100539.19;5018932;28;20121;-86
2023/12/25 09:11:52;;;;;;;4.57;4.18;;;;;;;9.52;100.00;100494.47;5031901;28;20037;-86
2023/12/25 09:14:17;;;;;;;4.90;4.50;;;;;;;9.55;100.00;100510.28;5025232;28;20148;-85
2023/12/25 09:16:43;;;;;;;4.82;4.43;;;;;;;9.52;100.00;100499.78;5022148;28;20115;-85
2023/12/25 09:19:08;;;;;;;4.68;4.28;;;;;;;9.80;100.00;100539.09;5027898;28;20105;-85
2023/12/25 09:21:38;;;;;;;4.93;4.53;;;;;;;9.94;100.00;100577.28;5023932;28;20106;-86
2023/12/25 09:24:04;;;;;;;6.55;5.97;;;;;;;9.72;100.00;100545.66;5025913;28;20087;-86
2023/12/25 09:26:30;;;;;;;5.25;4.70;;;;;;;9.94;100.00;100593.22;5025530;28;20156;-85
2023/12/25 09:28:55;;;;;;;5.00;4.60;;;;;;;9.90;100.00;100596.97;5018882;28;20033;-86
2023/12/25 09:31:21;;;;;;;4.88;4.47;;;;;;;9.93;100.00;100603.94;5022900;28;20038;-85
2023/12/25 09:33:46;;;;;;;5.57;5.07;;;;;;;9.76;100.00;100586.22;5033105;28;20043;-86
2023/12/25 09:36:12;;;;;;;4.00;3.70;;;;;;;9.91;100.00;100613.81;5022563;28;20688;-86
2023/12/25 09:38:37;;;;;;;4.45;4.10;;;;;;;9.89;100.00;100621.00;5030897;28;20069;-84
2023/12/25 09:41:09;;;;;;;4.63;4.22;;;;;;;9.92;100.00;100632.34;5035119;28;20057;-87
2023/12/25 09:43:41;;;;;;;3.97;3.58;;;;;;;9.93;100.00;100627.88;5031853;28;20033;-88
2023/12/25 09:46:08;;;;;;;4.63;4.22;;;;;;;9.90;100.00;100630.69;5031085;28;20082;-85
2023/12/25 09:48:35;;;;;;;3.63;3.33;;;;;;;9.94;100.00;100632.25;5035519;28;20024;-87
2023/12/25 09:51:03;;;;;;;3.47;3.17;;;;;;;9.68;100.00;100586.59;5032037;28;20037;-86
2023/12/25 09:53:29;;;;;;;3.85;3.55;;;;;;;9.87;100.00;100623.75;5021212;28;20084;-86
2023/12/25 09:55:54;;;;;;;3.97;3.67;;;;;;;9.99;100.00;100632.91;5034420;28;20073;-85
2023/12/25 09:58:20;;;;;;;3.97;3.67;;;;;;;10.00;100.00;100610.69;5027600;28;20125;-86
2023/12/25 10:00:46;;;;;;;3.80;3.50;;;;;;;10.04;100.00;100614.03;5031896;28;20120;-85
2023/12/25 10:03:12;;;;;;;5.03;4.30;;;;;;;9.98;100.00;100599.25;5027205;28;20498;-86
2023/12/25 10:05:37;;;;;;;5.13;4.63;;;;;;;10.05;100.00;100594.47;5022266;28;20034;-85
2023/12/25 10:08:03;;;;;;;4.10;3.80;;;;;;;9.93;100.00;100601.28;5022683;28;20041;-85
2023/12/25 10:10:31;;;;;;;4.80;4.40;;;;;;;9.97;100.00;100602.84;5023959;28;20040;-85
2023/12/25 10:13:00;;;;;;;3.70;3.40;;;;;;;9.90;100.00;100586.34;5023903;28;20516;-86
2023/12/25 10:15:25;;;;;;;4.47;4.07;;;;;;;10.07;100.00;100609.41;5018786;28;20069;-86
2023/12/25 10:18:04;;;;;;;4.20;3.90;;;;;;;10.11;100.00;100626.06;5022522;28;20164;-86
2023/12/25 10:20:33;;;;;;;3.97;3.67;;;;;;;10.07;100.00;100614.72;5021719;28;20037;-85
2023/12/25 10:23:02;;;;;;;4.50;4.10;;;;;;;10.15;100.00;100619.63;5021488;28;20034;-84
2023/12/25 10:25:30;;;;;;;4.28;3.97;;;;;;;10.06;100.00;100601.50;5025645;28;20029;-85
2023/12/25 10:27:58;;;;;;;3.90;3.60;;;;;;;10.14;100.00;100623.25;5029943;28;20040;-85
2023/12/25 10:30:26;;;;;;;4.20;3.90;;;;;;;10.15;100.00;100624.97;5022481;28;20045;-85
2023/12/25 10:33:13;;;;;;;4.50;4.20;;;;;;;10.22;100.00;100616.56;5021843;28;20036;-86
2023/12/25 10:35:39;;;;;;;6.20;5.57;;;;;;;10.16;100.00;100613.41;5024995;28;20046;-86
2023/12/25 10:38:05;;;;;;;5.32;4.82;;;;;;;10.10;100.00;100589.78;5031693;28;20029;-87
2023/12/25 10:40:31;;;;;;;4.57;4.18;;;;;;;10.18;100.00;100598.22;5028776;28;20128;-87
2023/12/25 10:42:57;;;;;;;3.95;3.65;;;;;;;10.27;100.00;100597.75;5021368;28;20029;-85
2023/12/25 10:45:24;;;;;;;3.85;3.55;;;;;;;10.30;100.00;100581.63;5025345;28;20369;-85
2023/12/25 10:47:51;;;;;;;3.80;3.50;;;;;;;10.26;100.00;100598.69;5018707;28;20099;-83
2023/12/25 10:50:25;;;;;;;3.80;3.50;;;;;;;10.24;100.00;100600.53;5016885;28;20057;-84
2023/12/25 10:52:50;;;;;;;;;;;;;;;10.28;100.00;100601.25;5027528;28;20037;-85
2023/12/25 10:55:24;;;;;;;4.10;3.70;;;;;;;9.94;100.00;100582.59;5023927;28;19925;-83
2023/12/25 10:57:50;;;;;;;2.70;2.50;;;;;;;9.91;100.00;100627.97;5030047;28;20116;-83
2023/12/25 11:00:18;;;;;;;2.47;2.28;;;;;;;9.69;100.00;100622.00;5019653;28;20038;-84
2023/12/25 11:02:44;;;;;;;1.98;1.88;;;;;;;9.53;100.00;100629.91;5020532;28;20054;-82
2023/12/25 11:05:10;;;;;;;2.30;2.10;;;;;;;9.46;100.00;100621.38;5024553;28;20113;-82
2023/12/25 11:07:37;;;;;;;2.00;1.90;;;;;;;9.44;100.00;100627.69;5022677;28;20094;-83
2023/12/25 11:10:03;;;;;;;2.80;1.80;;;;;;;9.44;100.00;100635.66;5026337;28;20029;-83
2023/12/25 11:12:29;;;;;;;1.52;1.40;;;;;;;9.37;100.00;100645.75;5017620;28;20041;-83
2023/12/25 11:14:55;;;;;;;1.65;1.55;;;;;;;9.33;100.00;100641.53;5016387;28;20037;-84
2023/12/25 11:17:21;;;;;;;1.65;1.40;;;;;;;9.20;100.00;100645.72;5022282;28;20037;-83